Time;durP1;ratioP1;P1;durP2;ratioP2;P2;SDS_P1;SDS_P2;PMS_P1;PMS_P2;Temp;Humidity;BMP_temperature;BMP_pressure;BME280_temperature;BME280_humidity;BME280_pressure;Samples;Min_cycle;Max_cycle;Signal;HPM_P1;HPM_P2
2022/09/16 00:00:06;;;;;;;3.90;1.90;;;23.30;69.70;;;;;;215159;1300;25250;-49
2022/09/16 00:05:30;;;;;;;2.70;1.80;;;23.30;69.80;;;;;;215195;1299;24308;-50
2022/09/16 00:10:36;;;;;;;3.80;1.90;;;23.30;69.60;;;;;;214994;1300;25326;-49
2022/09/16 00:15:49;;;;;;;6.60;2.20;;;23.20;69.30;;;;;;214896;1297;25271;-47
2022/09/16 00:20:53;;;;;;;3.40;1.90;;;23.30;69.60;;;;;;215352;1300;24436;-48
2022/09/16 00:25:57;;;;;;;3.10;1.90;;;23.20;69.40;;;;;;220389;1297;23084;-48
2022/09/16 00:31:01;;;;;;;3.30;1.70;;;23.20;69.30;;;;;;214914;1299;22573;-53
2022/09/16 00:36:10;;;;;;;4.20;1.80;;;23.30;69.30;;;;;;214958;1300;25325;-50
2022/09/16 00:41:19;;;;;;;4.60;1.90;;;23.30;69.70;;;;;;215367;1300;25416;-48
2022/09/16 00:46:30;;;;;;;3.20;1.80;;;23.20;69.70;;;;;;215292;1299;22694;-49
2022/09/16 00:51:35;;;;;;;3.10;1.80;;;23.20;69.70;;;;;;214972;1300;22652;-48
2022/09/16 00:56:42;;;;;;;4.20;1.80;;;23.20;69.70;;;;;;215160;1297;22610;-53
2022/09/16 01:01:47;;;;;;;2.80;1.60;;;23.20;69.40;;;;;;214802;1297;25350;-50
2022/09/16 01:06:51;;;;;;;2.80;1.40;;;23.20;69.40;;;;;;215079;1296;24250;-48
2022/09/16 01:11:54;;;;;;;2.00;1.50;;;23.20;69.40;;;;;;214829;1299;22604;-52
2022/09/16 01:17:29;;;;;;;3.10;1.70;;;23.20;69.40;;;;;;213471;1299;1909389;-49
2022/09/16 01:22:54;;;;;;;3.00;1.90;;;23.10;69.30;;;;;;215119;1297;22569;-50
2022/09/16 01:28:10;;;;;;;2.90;1.40;;;23.10;69.30;;;;;;214988;1299;24332;-51
2022/09/16 01:33:35;;;;;;;3.10;1.80;;;23.10;69.30;;;;;;215371;1296;25896;-51
2022/09/16 01:38:47;;;;;;;2.50;1.80;;;23.10;69.20;;;;;;215100;1297;25345;-48
2022/09/16 01:43:56;;;;;;;3.20;1.60;;;23.10;69.30;;;;;;215340;1296;22586;-50
2022/09/16 01:49:24;;;;;;;9.70;1.80;;;23.10;69.30;;;;;;215214;1296;22578;-51
2022/09/16 01:54:43;;;;;;;3.10;1.50;;;23.10;69.30;;;;;;214865;1296;23109;-48
2022/09/16 01:59:53;;;;;;;2.30;1.40;;;23.10;69.40;;;;;;215245;1297;25549;-48
2022/09/16 02:05:00;;;;;;;4.20;2.10;;;23.10;69.30;;;;;;215113;1296;24644;-49
2022/09/16 02:10:16;;;;;;;3.00;1.60;;;23.10;69.30;;;;;;215151;1299;24507;-48
2022/09/16 02:15:23;;;;;;;2.80;1.70;;;23.10;69.20;;;;;;214750;1296;22604;-51
2022/09/16 02:20:30;;;;;;;3.30;1.90;;;23.00;69.20;;;;;;214774;1297;25245;-49
2022/09/16 02:25:36;;;;;;;2.20;1.50;;;23.10;69.20;;;;;;215939;1297;23079;-48
2022/09/16 02:30:44;;;;;;;5.20;1.90;;;23.00;69.10;;;;;;215551;1297;24570;-50
2022/09/16 02:35:53;;;;;;;2.50;1.50;;;23.00;69.40;;;;;;215125;1299;25276;-48
2022/09/16 02:40:59;;;;;;;3.80;1.70;;;23.00;69.10;;;;;;215281;1299;24287;-48
2022/09/16 02:46:14;;;;;;;2.50;1.50;;;23.10;69.10;;;;;;215322;1297;24510;-52
2022/09/16 02:51:43;;;;;;;5.90;1.60;;;23.00;69.10;;;;;;215024;1300;24533;-52
2022/09/16 02:56:50;;;;;;;4.40;1.70;;;23.00;69.20;;;;;;215144;1299;24478;-51
2022/09/16 03:01:54;;;;;;;2.10;1.30;;;23.00;69.10;;;;;;215247;1296;22725;-50
2022/09/16 03:06:57;;;;;;;2.80;1.60;;;23.00;69.10;;;;;;215219;1299;22608;-52
2022/09/16 03:12:09;;;;;;;2.40;1.70;;;23.00;69.10;;;;;;215177;1299;22569;-48
2022/09/16 03:17:29;;;;;;;2.30;1.40;;;23.00;69.10;;;;;;214935;1299;25290;-46
2022/09/16 03:22:32;;;;;;;2.30;1.40;;;23.00;68.60;;;;;;215008;1299;24033;-47
2022/09/16 03:27:50;;;;;;;2.50;1.50;;;23.00;69.00;;;;;;214990;1299;25480;-50
2022/09/16 03:33:11;;;;;;;1.70;1.40;;;23.00;69.00;;;;;;215310;1297;22733;-49
2022/09/16 03:38:17;;;;;;;2.60;1.50;;;23.00;68.90;;;;;;214890;1299;25378;-47
2022/09/16 03:43:20;;;;;;;3.90;1.60;;;23.00;69.40;;;;;;214974;1299;24244;-51
2022/09/16 03:48:24;;;;;;;2.30;1.40;;;23.00;69.20;;;;;;215131;1296;25490;-48
2022/09/16 03:53:27;;;;;;;2.80;1.40;;;23.00;69.50;;;;;;215209;1299;22586;-48
2022/09/16 03:58:31;;;;;;;2.60;1.50;;;22.90;69.20;;;;;;215120;1297;22653;-48
2022/09/16 04:03:37;;;;;;;2.50;1.40;;;22.90;69.20;;;;;;214926;1299;22594;-53
2022/09/16 04:08:43;;;;;;;1.90;1.20;;;22.90;69.20;;;;;;215155;1299;25574;-48
2022/09/16 04:13:47;;;;;;;2.00;1.30;;;22.90;69.20;;;;;;215213;1297;22605;-52
2022/09/16 04:18:50;;;;;;;4.90;1.40;;;22.90;69.30;;;;;;214754;1299;22595;-49
2022/09/16 04:23:54;;;;;;;1.90;1.30;;;22.90;69.10;;;;;;215164;1299;22592;-51
2022/09/16 04:28:58;;;;;;;1.90;1.30;;;22.90;69.10;;;;;;215049;1296;22692;-49
2022/09/16 04:34:03;;;;;;;2.00;1.40;;;22.90;69.40;;;;;;214985;1297;25405;-47
2022/09/16 04:39:07;;;;;;;1.90;1.30;;;22.90;69.50;;;;;;214789;1297;22731;-48
2022/09/16 04:44:11;;;;;;;2.10;1.30;;;22.90;69.20;;;;;;214945;1299;22629;-49
2022/09/16 04:49:14;;;;;;;2.50;1.60;;;22.90;69.10;;;;;;214976;1296;22586;-53
2022/09/16 04:54:18;;;;;;;2.30;1.40;;;22.90;69.10;;;;;;214706;1297;25594;-49
2022/09/16 04:59:21;;;;;;;2.50;1.30;;;22.90;69.10;;;;;;214967;1297;22668;-49
2022/09/16 05:04:25;;;;;;;2.50;1.40;;;22.90;69.30;;;;;;214789;1296;22606;-50
2022/09/16 05:09:28;;;;;;;2.70;1.30;;;22.80;69.30;;;;;;215093;1297;25704;-48
2022/09/16 05:14:32;;;;;;;2.10;1.60;;;22.80;69.50;;;;;;214974;1296;22566;-48
2022/09/16 05:19:35;;;;;;;2.00;1.10;;;22.80;69.20;;;;;;214924;1297;24252;-50
2022/09/16 05:24:39;;;;;;;2.00;1.40;;;22.80;69.10;;;;;;214852;1296;22594;-47
2022/09/16 05:29:42;;;;;;;2.20;1.30;;;22.80;69.20;;;;;;214949;1299;22592;-48
2022/09/16 05:34:48;;;;;;;3.30;1.50;;;22.80;69.50;;;;;;214868;1297;22569;-49
2022/09/16 05:39:52;;;;;;;2.40;1.40;;;22.90;69.80;;;;;;215266;1296;24325;-48
2022/09/16 05:44:55;;;;;;;2.40;1.20;;;22.90;69.80;;;;;;214959;1297;22612;-48
2022/09/16 05:49:59;;;;;;;4.50;1.30;;;22.90;69.70;;;;;;215095;1297;25421;-48
2022/09/16 05:55:04;;;;;;;5.60;1.50;;;22.90;69.70;;;;;;215172;1297;22654;-51
2022/09/16 06:00:10;;;;;;;6.00;1.60;;;22.90;70.10;;;;;;215312;1297;22586;-50
2022/09/16 06:05:14;;;;;;;3.20;1.30;;;22.90;70.10;;;;;;215099;1299;24317;-47
2022/09/16 06:10:17;;;;;;;7.90;1.30;;;22.90;70.50;;;;;;215108;1297;22570;-47
2022/09/16 06:15:23;;;;;;;3.60;1.40;;;22.90;70.50;;;;;;215379;1297;22637;-47
2022/09/16 06:20:26;;;;;;;6.40;1.50;;;23.00;70.70;;;;;;214945;1299;23208;-57
2022/09/16 06:25:30;;;;;;;3.80;1.40;;;23.00;70.60;;;;;;215390;1296;25689;-55
2022/09/16 06:30:37;;;;;;;2.90;1.30;;;23.00;70.50;;;;;;215081;1296;22595;-52
2022/09/16 06:35:40;;;;;;;6.70;1.50;;;23.00;71.00;;;;;;215122;1296;25404;-53
2022/09/16 06:40:44;;;;;;;6.20;1.90;;;23.00;71.40;;;;;;214974;1296;24266;-57
2022/09/16 06:45:48;;;;;;;11.30;1.70;;;23.00;70.90;;;;;;214988;1299;22616;-51
2022/09/16 06:51:05;;;;;;;9.00;1.60;;;23.10;70.00;;;;;;215250;1299;22591;-53
2022/09/16 06:56:11;;;;;;;7.90;1.70;;;23.10;69.70;;;;;;214760;1296;22685;-51
2022/09/16 07:01:18;;;;;;;5.10;1.70;;;23.10;69.60;;;;;;216337;1298;22563;-51
2022/09/16 07:06:23;;;;;;;8.60;2.80;;;23.10;69.20;;;;;;214616;1297;22592;-49
2022/09/16 07:11:47;;;;;;;3.80;1.50;;;23.10;68.90;;;;;;215188;1296;25397;-49
2022/09/16 07:16:51;;;;;;;4.90;1.50;;;23.10;68.90;;;;;;215041;1296;22566;-55
2022/09/16 07:21:54;;;;;;;3.60;1.70;;;23.10;68.50;;;;;;214944;1297;22518;-53
2022/09/16 07:26:58;;;;;;;4.60;1.50;;;23.10;68.50;;;;;;214987;1299;22614;-54
2022/09/16 07:32:01;;;;;;;3.50;1.30;;;23.10;67.80;;;;;;215032;1299;24047;-51
2022/09/16 07:37:05;;;;;;;3.30;1.40;;;23.10;68.10;;;;;;214951;1296;25449;-52
2022/09/16 07:42:09;;;;;;;5.00;1.60;;;23.10;67.10;;;;;;214750;1299;25483;-52
2022/09/16 07:47:14;;;;;;;4.70;1.60;;;23.10;67.30;;;;;;215026;1296;24444;-55
2022/09/16 07:52:28;;;;;;;3.50;1.60;;;23.10;67.30;;;;;;214947;1296;22688;-55
2022/09/16 07:57:31;;;;;;;4.70;1.40;;;23.10;67.10;;;;;;214798;1296;22586;-53
2022/09/16 08:02:36;;;;;;;3.50;1.60;;;23.10;67.00;;;;;;214792;1297;22576;-52
2022/09/16 08:07:45;;;;;;;3.90;1.50;;;23.10;67.00;;;;;;214525;1297;24268;-53
2022/09/16 08:12:49;;;;;;;2.30;1.20;;;23.10;66.50;;;;;;215337;1296;24293;-56
2022/09/16 08:17:53;;;;;;;2.40;1.30;;;23.10;65.80;;;;;;215123;1297;24351;-54
2022/09/16 08:22:59;;;;;;;2.70;1.50;;;23.20;65.60;;;;;;214725;1299;22592;-52
2022/09/16 08:28:03;;;;;;;2.50;1.50;;;23.20;65.70;;;;;;215177;1299;22569;-53
2022/09/16 08:33:07;;;;;;;3.00;1.50;;;23.20;65.30;;;;;;214990;1299;23849;-52
2022/09/16 08:38:12;;;;;;;4.20;1.40;;;23.20;65.50;;;;;;215174;1296;22588;-55
2022/09/16 08:43:25;;;;;;;4.10;1.40;;;23.30;66.00;;;;;;214718;1297;22612;-53
2022/09/16 08:48:41;;;;;;;3.90;1.70;;;23.30;66.10;;;;;;214759;1296;22635;-55
2022/09/16 08:53:56;;;;;;;3.50;1.70;;;23.30;66.20;;;;;;214699;1296;23970;-55
2022/09/16 08:59:01;;;;;;;4.60;1.80;;;23.30;66.10;;;;;;214515;1297;24299;-55
2022/09/16 09:04:05;;;;;;;6.10;1.70;;;23.50;65.90;;;;;;215006;1296;25628;-55
2022/09/16 09:09:11;;;;;;;7.80;1.60;;;23.50;66.10;;;;;;214993;1296;22576;-54
2022/09/16 09:14:39;;;;;;;4.30;1.50;;;23.50;65.40;;;;;;214991;1296;22586;-48
2022/09/16 09:20:30;;;;;;;7.60;1.30;;;23.50;65.60;;;;;;214865;1299;25390;-55
2022/09/16 09:25:48;;;;;;;4.30;1.50;;;23.70;64.60;;;;;;214902;1296;22646;-54
2022/09/16 09:31:17;;;;;;;7.40;1.40;;;23.70;64.80;;;;;;215081;1296;26525;-53
2022/09/16 09:37:05;;;;;;;3.80;1.30;;;23.80;64.80;;;;;;214934;1299;22603;-49
2022/09/16 09:42:26;;;;;;;3.10;1.30;;;23.80;64.70;;;;;;214731;1299;22577;-49
2022/09/16 09:47:41;;;;;;;4.00;1.30;;;23.80;64.30;;;;;;214857;1296;26564;-53
2022/09/16 09:52:59;;;;;;;4.30;1.60;;;23.70;64.10;;;;;;215312;1296;25566;-55
2022/09/16 09:58:48;;;;;;;6.40;1.20;;;23.80;63.80;;;;;;214818;1296;22843;-57
2022/09/16 10:03:56;;;;;;;3.20;1.50;;;23.90;64.10;;;;;;214688;1299;24324;-54
2022/09/16 10:09:00;;;;;;;4.90;1.50;;;24.00;63.60;;;;;;214966;1296;22561;-55
2022/09/16 10:14:23;;;;;;;2.20;1.10;;;24.00;63.60;;;;;;214970;1296;22704;-53
2022/09/16 10:19:28;;;;;;;5.20;1.50;;;24.00;64.00;;;;;;215004;1299;23045;-51
2022/09/16 10:24:40;;;;;;;4.70;1.00;;;24.00;63.50;;;;;;214939;1297;24652;-54
2022/09/16 10:29:44;;;;;;;3.50;1.50;;;24.10;63.40;;;;;;214932;1296;22661;-52
2022/09/16 10:34:48;;;;;;;2.00;1.00;;;24.20;63.30;;;;;;214903;1296;24470;-53
2022/09/16 10:39:55;;;;;;;1.80;1.00;;;24.20;63.20;;;;;;214726;1297;24341;-51
2022/09/16 10:45:16;;;;;;;2.00;1.10;;;24.30;63.10;;;;;;215074;1299;23078;-53
2022/09/16 10:50:28;;;;;;;6.80;1.30;;;24.40;62.80;;;;;;214953;1296;22586;-54
2022/09/16 10:55:37;;;;;;;4.60;1.60;;;24.40;62.80;;;;;;214641;1297;25694;-53
2022/09/16 11:01:12;;;;;;;4.60;1.50;;;24.50;63.00;;;;;;214972;1296;24377;-53
2022/09/16 11:06:26;;;;;;;4.60;1.10;;;24.50;62.50;;;;;;215103;1299;25351;-51
2022/09/16 11:11:39;;;;;;;2.60;1.20;;;24.50;61.80;;;;;;214983;1296;24253;-51
2022/09/16 11:16:44;;;;;;;4.10;1.50;;;24.50;62.00;;;;;;214947;1296;22566;-51
2022/09/16 11:22:05;;;;;;;4.30;1.20;;;24.50;62.00;;;;;;215021;1296;22579;-53
2022/09/16 11:27:28;;;;;;;5.10;1.50;;;24.50;62.00;;;;;;214987;1296;25299;-53
2022/09/16 11:33:39;;;;;;;;;;;;;;;;;;;;;
2022/09/16 11:39:17;;;;;;;5.10;1.20;;;24.50;61.70;;;;;;214415;1299;25541;-54
2022/09/16 11:44:59;;;;;;;3.20;1.30;;;24.60;61.90;;;;;;214581;1297;22567;-53
2022/09/16 11:50:30;;;;;;;7.60;1.60;;;24.70;61.50;;;;;;214753;1296;24299;-54
2022/09/16 11:56:16;;;;;;;4.60;1.20;;;24.70;61.40;;;;;;215058;1296;22585;-54
2022/09/16 12:01:37;;;;;;;2.60;1.20;;;24.60;61.50;;;;;;214533;1299;22608;-55
2022/09/16 12:07:09;;;;;;;3.40;1.40;;;24.60;61.50;;;;;;214704;1297;22770;-60
2022/09/16 12:12:34;;;;;;;2.10;1.20;;;24.70;61.50;;;;;;214730;1296;25274;-53
2022/09/16 12:17:48;;;;;;;5.30;1.30;;;24.80;60.90;;;;;;215148;1296;22615;-55
2022/09/16 12:23:24;;;;;;;3.50;1.70;;;24.90;61.20;;;;;;215105;1299;25371;-56
2022/09/16 12:28:34;;;;;;;4.80;1.70;;;24.80;62.20;;;;;;214994;1297;24517;-56
2022/09/16 12:33:46;;;;;;;4.90;1.60;;;24.80;62.20;;;;;;215152;1300;22586;-55
2022/09/16 12:38:50;;;;;;;5.20;1.60;;;24.80;62.00;;;;;;215021;1296;22588;-54
2022/09/16 12:44:27;;;;;;;4.10;1.70;;;24.80;61.20;;;;;;214813;1296;22656;-53
2022/09/16 12:50:02;;;;;;;3.20;1.40;;;24.80;61.30;;;;;;214965;1296;26692;-50
2022/09/16 12:55:32;;;;;;;3.10;1.40;;;24.70;61.50;;;;;;214921;1300;22624;-53
2022/09/16 13:01:15;;;;;;;2.30;1.30;;;24.70;61.20;;;;;;215364;1296;22573;-50
2022/09/16 13:06:26;;;;;;;2.60;1.40;;;24.70;61.20;;;;;;214420;1299;24452;-54
2022/09/16 13:11:33;;;;;;;5.70;1.40;;;24.60;61.30;;;;;;215027;1296;23028;-54
2022/09/16 13:17:08;;;;;;;3.20;1.40;;;24.60;61.20;;;;;;211543;1299;5048619;-53
2022/09/16 13:22:13;;;;;;;3.30;1.40;;;24.60;60.90;;;;;;215119;1296;24346;-56
2022/09/16 13:27:38;;;;;;;2.00;1.20;;;24.70;60.70;;;;;;214942;1296;25656;-54
2022/09/16 13:32:52;;;;;;;1.90;1.20;;;24.70;60.40;;;;;;214923;1298;22582;-54
2022/09/16 13:38:00;;;;;;;2.20;1.10;;;24.70;60.20;;;;;;215191;1296;22604;-52
2022/09/16 13:43:13;;;;;;;1.80;1.10;;;24.70;60.30;;;;;;215099;1298;26654;-52
2022/09/16 13:48:25;;;;;;;3.00;1.40;;;24.70;60.00;;;;;;214798;1299;22653;-54
2022/09/16 13:53:40;;;;;;;2.70;1.40;;;24.70;60.20;;;;;;215085;1297;22635;-55
2022/09/16 13:59:01;;;;;;;3.60;1.40;;;24.70;60.30;;;;;;214636;1299;23539;-54
2022/09/16 14:04:10;;;;;;;5.80;1.50;;;24.80;60.00;;;;;;214784;1300;24383;-51
2022/09/16 14:09:48;;;;;;;2.80;1.20;;;24.70;60.20;;;;;;214854;1299;25400;-54
2022/09/16 14:15:13;;;;;;;3.20;1.10;;;24.60;60.00;;;;;;214813;1299;22621;-55
2022/09/16 14:20:37;;;;;;;3.80;1.50;;;24.60;59.60;;;;;;214796;1298;25446;-51
2022/09/16 14:26:18;;;;;;;15.30;1.60;;;24.60;59.70;;;;;;212965;1305;26688;-55
2022/09/16 14:31:29;;;;;;;4.20;1.20;;;24.70;59.20;;;;;;213208;1305;22678;-54
2022/09/16 14:36:43;;;;;;;6.70;1.80;;;24.60;59.30;;;;;;213336;1305;25354;-54
2022/09/16 14:42:02;;;;;;;6.10;1.80;;;24.60;59.10;;;;;;213117;1305;25341;-53
2022/09/16 14:47:39;;;;;;;4.10;1.80;;;24.50;58.90;;;;;;213001;1303;24123;-55
2022/09/16 14:53:44;;;;;;;3.10;1.60;;;24.50;59.10;;;;;;214018;1302;23102;-54
2022/09/16 14:59:24;;;;;;;3.20;1.40;;;24.50;58.70;;;;;;214467;1302;24384;-54
2022/09/16 15:04:41;;;;;;;5.80;1.60;;;24.40;58.70;;;;;;214584;1301;26632;-55
2022/09/16 15:10:27;;;;;;;4.50;1.40;;;24.40;59.50;;;;;;214408;1302;25446;-56
2022/09/16 15:16:05;;;;;;;4.20;1.40;;;24.40;58.80;;;;;;212927;1306;22583;-54
2022/09/16 15:21:36;;;;;;;2.50;1.50;;;24.30;58.80;;;;;;213596;1305;24282;-54
2022/09/16 15:26:43;;;;;;;3.70;1.50;;;24.30;58.90;;;;;;213590;1305;22574;-56
2022/09/16 15:31:53;;;;;;;4.90;1.50;;;24.30;58.90;;;;;;214034;1297;26476;-55
2022/09/16 15:37:32;;;;;;;3.80;1.50;;;24.30;59.20;;;;;;214714;1296;22584;-54
2022/09/16 15:43:11;;;;;;;4.30;1.60;;;24.30;59.70;;;;;;214830;1300;24412;-53
2022/09/16 15:48:34;;;;;;;8.40;1.70;;;24.30;59.70;;;;;;214744;1299;22689;-58
2022/09/16 15:53:52;;;;;;;5.00;1.40;;;24.30;59.60;;;;;;215023;1296;22592;-57
2022/09/16 15:59:30;;;;;;;4.90;1.40;;;24.30;59.70;;;;;;214611;1297;25498;-56
2022/09/16 16:04:46;;;;;;;3.10;1.50;;;24.30;59.80;;;;;;214947;1296;22564;-56
2022/09/16 16:09:53;;;;;;;6.10;1.90;;;24.30;59.60;;;;;;214423;1296;22680;-55
2022/09/16 16:15:00;;;;;;;6.90;1.80;;;24.40;60.10;;;;;;214830;1297;24332;-55
2022/09/16 16:20:12;;;;;;;2.40;1.30;;;24.30;59.70;;;;;;214585;1299;25351;-56
2022/09/16 16:25:24;;;;;;;4.50;1.80;;;24.30;60.20;;;;;;214791;1296;22595;-57
2022/09/16 16:30:27;;;;;;;7.50;1.50;;;24.30;60.60;;;;;;214936;1296;24100;-53
2022/09/16 16:35:32;;;;;;;3.70;1.60;;;24.30;60.70;;;;;;215148;1296;22605;-56
2022/09/16 16:40:51;;;;;;;9.40;1.40;;;24.30;60.90;;;;;;214979;1299;23080;-55
2022/09/16 16:46:00;;;;;;;5.60;1.30;;;24.30;60.90;;;;;;215005;1297;24262;-58
2022/09/16 16:51:31;;;;;;;6.00;1.50;;;24.20;61.10;;;;;;215043;1297;24347;-59
2022/09/16 16:57:07;;;;;;;4.90;1.60;;;24.20;61.10;;;;;;214945;1299;24447;-59
2022/09/16 17:02:14;;;;;;;3.80;1.70;;;24.30;61.30;;;;;;215431;1300;25570;-60
2022/09/16 17:07:22;;;;;;;3.10;1.50;;;24.30;61.50;;;;;;214593;1296;22677;-59
2022/09/16 17:12:36;;;;;;;8.80;1.80;;;24.30;61.10;;;;;;214944;1297;22584;-60
2022/09/16 17:17:54;;;;;;;4.70;1.80;;;24.30;61.30;;;;;;215192;1296;22665;-55
2022/09/16 17:23:08;;;;;;;4.90;2.10;;;24.30;61.20;;;;;;214823;1299;24357;-62
2022/09/16 17:28:30;;;;;;;6.00;2.10;;;24.30;61.30;;;;;;213873;1302;22633;-62
2022/09/16 17:33:34;;;;;;;5.10;2.10;;;24.30;61.60;;;;;;214171;1302;22712;-56
2022/09/16 17:38:38;;;;;;;6.20;2.40;;;24.30;61.60;;;;;;213840;1302;22599;-59
2022/09/16 17:43:48;;;;;;;7.30;2.10;;;24.30;61.10;;;;;;214030;1302;22595;-60
2022/09/16 17:49:24;;;;;;;8.00;2.40;;;24.30;61.30;;;;;;214041;1303;25486;-60
2022/09/16 17:54:28;;;;;;;6.50;2.40;;;24.20;61.50;;;;;;214116;1303;24329;-56
2022/09/16 17:59:33;;;;;;;6.60;2.40;;;24.30;61.80;;;;;;214066;1303;24273;-59
2022/09/16 18:04:42;;;;;;;8.30;2.80;;;24.20;61.70;;;;;;214376;1300;23909;-59
2022/09/16 18:09:46;;;;;;;7.80;2.50;;;24.30;62.20;;;;;;214667;1299;23934;-59
2022/09/16 18:14:52;;;;;;;12.70;3.00;;;24.50;61.60;;;;;;214948;1299;24329;-58
2022/09/16 18:20:02;;;;;;;17.40;2.40;;;24.50;61.50;;;;;;215134;1299;25413;-60
2022/09/16 18:25:12;;;;;;;15.20;2.80;;;24.50;61.80;;;;;;214934;1299;22566;-60
2022/09/16 18:30:20;;;;;;;17.10;3.00;;;24.40;62.10;;;;;;214977;1299;25398;-58
2022/09/16 18:35:30;;;;;;;9.40;2.50;;;24.40;62.50;;;;;;215237;1298;22783;-61
2022/09/16 18:40:38;;;;;;;8.10;2.30;;;24.40;61.60;;;;;;215256;1300;22590;-61
2022/09/16 18:45:58;;;;;;;10.80;2.50;;;24.40;61.90;;;;;;215052;1300;23131;-63
2022/09/16 18:51:34;;;;;;;24.80;2.80;;;24.30;61.90;;;;;;214809;1299;25364;-60
2022/09/16 18:56:46;;;;;;;9.50;2.20;;;24.30;62.10;;;;;;214965;1299;22665;-62
2022/09/16 19:02:03;;;;;;;6.20;2.40;;;24.30;62.30;;;;;;214781;1298;24059;-61
2022/09/16 19:07:18;;;;;;;7.10;2.20;;;24.20;62.40;;;;;;214944;1298;24384;-62
2022/09/16 19:12:34;;;;;;;8.80;2.10;;;24.20;62.40;;;;;;214991;1299;23350;-61
2022/09/16 19:18:06;;;;;;;8.70;2.70;;;24.10;62.60;;;;;;214853;1297;22654;-62
2022/09/16 19:23:29;;;;;;;7.60;2.20;;;24.20;63.10;;;;;;214858;1298;22570;-60
2022/09/16 19:28:59;;;;;;;8.00;2.00;;;24.10;63.00;;;;;;214707;1299;25271;-61
2022/09/16 19:34:08;;;;;;;4.00;1.80;;;24.10;63.30;;;;;;214902;1300;24623;-61
2022/09/16 19:39:45;;;;;;;7.00;2.10;;;24.10;63.30;;;;;;214816;1299;24266;-62
2022/09/16 19:45:06;;;;;;;6.30;2.10;;;24.10;63.20;;;;;;215089;1300;22581;-61
2022/09/16 19:50:29;;;;;;;12.50;3.00;;;24.10;63.30;;;;;;215127;1300;22575;-61
2022/09/16 19:55:40;;;;;;;8.90;2.20;;;24.10;63.70;;;;;;215012;1299;24418;-60
2022/09/16 20:01:12;;;;;;;11.20;2.10;;;24.10;63.30;;;;;;215053;1299;24250;-60
2022/09/16 20:06:41;;;;;;;6.50;2.00;;;24.10;63.80;;;;;;214960;1297;25407;-60
2022/09/16 20:12:05;;;;;;;6.30;2.00;;;24.00;63.80;;;;;;215011;1299;22735;-59
2022/09/16 20:17:18;;;;;;;12.10;2.30;;;24.00;64.20;;;;;;215157;1300;24443;-63
2022/09/16 20:22:22;;;;;;;9.00;2.60;;;24.00;65.90;;;;;;214562;1299;25406;-60
2022/09/16 20:27:25;;;;;;;9.30;2.70;;;24.00;65.40;;;;;;214634;1299;24219;-59
2022/09/16 20:32:29;;;;;;;14.60;2.90;;;24.00;65.90;;;;;;214756;1297;22627;-61
2022/09/16 20:37:32;;;;;;;8.50;2.20;;;24.00;66.20;;;;;;214521;1297;24833;-59
2022/09/16 20:42:36;;;;;;;8.20;2.70;;;24.00;66.30;;;;;;214953;1297;25414;-61
2022/09/16 20:47:40;;;;;;;7.90;2.10;;;24.00;66.00;;;;;;214838;1297;22589;-61
2022/09/16 20:52:43;;;;;;;7.80;2.10;;;24.00;66.50;;;;;;214965;1297;23620;-61
2022/09/16 20:57:48;;;;;;;7.70;2.30;;;24.00;66.60;;;;;;214946;1299;25600;-62
2022/09/16 21:02:53;;;;;;;6.60;2.20;;;23.90;66.90;;;;;;214781;1297;22740;-60
2022/09/16 21:08:05;;;;;;;6.50;2.10;;;23.90;66.60;;;;;;214588;1297;22635;-61
2022/09/16 21:13:13;;;;;;;5.50;2.20;;;23.90;66.70;;;;;;214796;1297;24554;-61
2022/09/16 21:18:17;;;;;;;5.10;2.00;;;23.90;66.60;;;;;;214704;1299;22663;-59
2022/09/16 21:23:25;;;;;;;4.90;1.90;;;23.90;66.80;;;;;;215030;1299;24266;-61
2022/09/16 21:28:30;;;;;;;4.60;1.90;;;23.90;66.90;;;;;;215005;1296;22589;-60
2022/09/16 21:33:35;;;;;;;7.60;1.90;;;23.80;66.60;;;;;;214697;1296;22634;-62
2022/09/16 21:38:44;;;;;;;7.30;2.20;;;23.80;66.60;;;;;;214727;1296;22601;-62
2022/09/16 21:44:09;;;;;;;7.70;2.40;;;23.80;67.70;;;;;;214842;1299;22745;-61
2022/09/16 21:49:23;;;;;;;10.20;2.50;;;23.90;67.10;;;;;;214929;1297;25352;-60
2022/09/16 21:54:29;;;;;;;8.60;2.40;;;23.80;67.80;;;;;;214911;1299;25298;-62
2022/09/16 21:59:33;;;;;;;7.50;2.10;;;23.80;66.90;;;;;;215014;1299;22638;-59
2022/09/16 22:04:37;;;;;;;5.10;2.00;;;23.80;66.90;;;;;;214900;1296;24258;-61
2022/09/16 22:09:40;;;;;;;5.80;1.90;;;23.70;66.90;;;;;;215031;1297;22587;-64
2022/09/16 22:14:45;;;;;;;5.70;1.70;;;23.80;67.50;;;;;;214940;1297;22591;-58
2022/09/16 22:19:49;;;;;;;5.80;2.10;;;23.70;67.00;;;;;;214768;1299;25137;-61
2022/09/16 22:24:54;;;;;;;5.60;2.10;;;23.70;67.20;;;;;;214613;1299;25290;-60
2022/09/16 22:29:58;;;;;;;6.00;1.90;;;23.60;66.90;;;;;;214894;1297;25293;-61
2022/09/16 22:35:08;;;;;;;3.50;1.80;;;23.60;66.80;;;;;;215010;1298;22584;-62
2022/09/16 22:40:12;;;;;;;9.90;2.20;;;23.60;66.90;;;;;;215096;1297;25457;-62
2022/09/16 22:45:19;;;;;;;4.50;1.70;;;23.60;66.90;;;;;;214927;1299;22597;-62
2022/09/16 22:51:03;;;;;;;4.60;1.90;;;23.60;66.90;;;;;;214767;1297;22586;-61
2022/09/16 22:56:16;;;;;;;5.40;2.20;;;23.50;66.80;;;;;;214751;1298;24285;-62
2022/09/16 23:01:30;;;;;;;6.50;2.20;;;23.50;67.00;;;;;;215120;1296;22726;-64
2022/09/16 23:06:37;;;;;;;4.10;1.80;;;23.50;67.00;;;;;;214998;1297;22745;-62
2022/09/16 23:11:44;;;;;;;6.90;2.00;;;23.40;67.10;;;;;;215028;1299;22661;-62
2022/09/16 23:16:56;;;;;;;3.50;1.60;;;23.40;66.90;;;;;;214757;1297;22626;-61
2022/09/16 23:22:03;;;;;;;4.30;1.70;;;23.40;67.00;;;;;;214852;1299;22570;-61
2022/09/16 23:27:12;;;;;;;3.70;1.70;;;23.40;67.10;;;;;;214748;1299;25511;-61
2022/09/16 23:32:17;;;;;;;6.30;1.90;;;23.40;67.20;;;;;;214927;1296;25521;-62
2022/09/16 23:37:31;;;;;;;4.90;2.00;;;23.30;67.30;;;;;;215060;1297;24457;-62
2022/09/16 23:42:38;;;;;;;4.90;1.60;;;23.30;67.60;;;;;;214677;1297;25355;-62
2022/09/16 23:47:42;;;;;;;3.30;1.40;;;23.30;67.30;;;;;;214865;1297;22697;-62
2022/09/16 23:52:50;;;;;;;3.60;1.70;;;23.30;67.00;;;;;;214693;1297;24771;-64
2022/09/16 23:57:58;;;;;;;4.70;1.60;;;23.30;66.90;;;;;;214546;1299;24178;-60
